Time;durP1;ratioP1;P1;durP2;ratioP2;P2;SDS_P1;SDS_P2;PMS_P1;PMS_P2;Temp;Humidity;BMP_temperature;BMP_pressure;BME280_temperature;BME280_humidity;BME280_pressure;Samples;Min_cycle;Max_cycle;Signal;HPM_P1;HPM_P2
2021/09/18 00:01:13;;;;;;;;;;;23.10;46.40;;;;;;488368;243;1135;-69
2021/09/18 00:03:15;;;;;;;;;;;23.30;46.00;;;;;;488423;243;1157;-69
2021/09/18 00:05:16;;;;;;;;;;;23.20;46.00;;;;;;488477;243;1124;-69
2021/09/18 00:07:17;;;;;;;;;;;23.10;46.50;;;;;;488351;244;1141;-69
2021/09/18 00:09:19;;;;;;;;;;;23.00;46.60;;;;;;488441;243;2123;-69
2021/09/18 00:11:20;;;;;;;;;;;23.10;46.20;;;;;;488387;243;1220;-69
2021/09/18 00:13:21;;;;;;;;;;;23.00;46.50;;;;;;488481;243;1036;-69
2021/09/18 00:15:23;;;;;;;;;;;23.00;46.50;;;;;;488451;244;1259;-68
2021/09/18 00:17:26;;;;;;;;;;;23.10;46.30;;;;;;488451;244;1146;-68
2021/09/18 00:19:26;;;;;;;;;;;23.30;45.80;;;;;;488441;244;1452;-68
2021/09/18 00:21:28;;;;;;;;;;;23.00;46.20;;;;;;488431;244;1195;-68
2021/09/18 00:23:29;;;;;;;;;;;23.00;46.10;;;;;;488483;243;1098;-68
2021/09/18 00:25:30;;;;;;;;;;;22.90;46.40;;;;;;488413;244;1312;-69
2021/09/18 00:27:32;;;;;;;;;;;23.20;46.10;;;;;;488456;243;1037;-68
2021/09/18 00:29:33;;;;;;;;;;;23.00;46.20;;;;;;488478;244;2114;-69
2021/09/18 00:31:34;;;;;;;;;;;22.90;46.30;;;;;;488299;243;1216;-69
2021/09/18 00:33:35;;;;;;;;;;;23.00;46.40;;;;;;485009;245;1058;-70
2021/09/18 00:35:37;;;;;;;;;;;23.00;46.40;;;;;;484992;245;1245;-68
2021/09/18 00:37:38;;;;;;;;;;;22.90;46.40;;;;;;485012;245;1317;-68
2021/09/18 00:39:39;;;;;;;;;;;23.00;46.30;;;;;;485043;245;972;-68
2021/09/18 00:41:41;;;;;;;;;;;22.90;46.20;;;;;;484951;245;1173;-68
2021/09/18 00:43:42;;;;;;;;;;;22.90;46.40;;;;;;484965;245;1252;-69
2021/09/18 00:45:43;;;;;;;;;;;23.10;46.00;;;;;;484984;245;1097;-68
2021/09/18 00:47:45;;;;;;;;;;;22.80;46.30;;;;;;485024;245;1148;-69
2021/09/18 00:49:46;;;;;;;;;;;23.00;46.20;;;;;;485039;245;2175;-69
2021/09/18 00:51:48;;;;;;;;;;;23.00;46.10;;;;;;484930;245;1154;-68
2021/09/18 00:53:49;;;;;;;;;;;22.90;46.20;;;;;;484940;245;1446;-68
2021/09/18 00:55:50;;;;;;;;;;;22.90;46.30;;;;;;484885;245;1194;-69
2021/09/18 00:57:51;;;;;;;;;;;22.80;46.20;;;;;;484929;245;1063;-68
2021/09/18 00:59:53;;;;;;;;;;;22.90;46.30;;;;;;484988;245;959;-69
2021/09/18 01:01:54;;;;;;;;;;;23.00;46.10;;;;;;484927;245;1198;-68
2021/09/18 01:03:55;;;;;;;;;;;22.90;46.00;;;;;;484972;245;1150;-68
2021/09/18 01:05:57;;;;;;;;;;;23.00;45.80;;;;;;485001;246;1187;-69
2021/09/18 01:07:58;;;;;;;;;;;23.00;45.80;;;;;;484975;245;1416;-69
2021/09/18 01:09:59;;;;;;;;;;;23.00;45.80;;;;;;485000;245;2113;-69
2021/09/18 01:12:00;;;;;;;;;;;22.80;46.10;;;;;;485030;245;996;-69
2021/09/18 01:14:02;;;;;;;;;;;22.80;46.20;;;;;;485017;245;1041;-68
2021/09/18 01:16:03;;;;;;;;;;;22.90;45.90;;;;;;485022;246;1071;-68
2021/09/18 01:18:04;;;;;;;;;;;22.90;45.90;;;;;;485074;245;1452;-68
2021/09/18 01:20:06;;;;;;;;;;;23.10;45.50;;;;;;484984;246;978;-68
2021/09/18 01:22:07;;;;;;;;;;;23.00;45.60;;;;;;484977;245;1108;-69
2021/09/18 01:24:08;;;;;;;;;;;23.00;45.70;;;;;;484999;245;1148;-68
2021/09/18 01:26:10;;;;;;;;;;;23.20;45.20;;;;;;484971;245;1155;-69
2021/09/18 01:28:11;;;;;;;;;;;23.50;44.80;;;;;;485023;245;1241;-69
2021/09/18 01:30:12;;;;;;;;;;;23.30;44.90;;;;;;485074;245;2117;-69
2021/09/18 01:32:14;;;;;;;;;;;23.30;45.00;;;;;;484931;245;1221;-68
2021/09/18 01:34:15;;;;;;;;;;;23.20;45.10;;;;;;485110;245;982;-69
2021/09/18 01:36:16;;;;;;;;;;;23.50;44.70;;;;;;484964;245;1101;-68
2021/09/18 01:38:18;;;;;;;;;;;23.70;44.30;;;;;;484958;245;1236;-69
2021/09/18 01:40:19;;;;;;;;;;;23.70;44.20;;;;;;484981;245;977;-68
2021/09/18 01:42:20;;;;;;;;;;;23.70;44.20;;;;;;485055;245;1129;-68
2021/09/18 01:44:22;;;;;;;;;;;23.40;44.50;;;;;;485016;245;1150;-68
2021/09/18 01:46:23;;;;;;;;;;;23.30;44.80;;;;;;484971;245;1052;-68
2021/09/18 01:48:24;;;;;;;;;;;23.80;44.20;;;;;;485019;245;1203;-68
2021/09/18 01:50:26;;;;;;;;;;;23.30;44.80;;;;;;485079;245;2176;-68
2021/09/18 01:52:33;;;;;;;;;;;23.30;44.80;;;;;;485004;245;1044;-69
2021/09/18 01:54:33;;;;;;;;;;;23.30;45.00;;;;;;484945;245;1393;-68
2021/09/18 01:56:33;;;;;;;;;;;23.20;44.90;;;;;;484835;245;1398;-68
2021/09/18 01:58:34;;;;;;;;;;;23.30;44.80;;;;;;484977;245;1139;-69
2021/09/18 02:00:35;;;;;;;;;;;23.20;44.90;;;;;;484991;245;1188;-69
2021/09/18 02:02:37;;;;;;;;;;;23.10;45.00;;;;;;485004;245;1130;-69
2021/09/18 02:04:38;;;;;;;;;;;22.90;45.40;;;;;;485036;245;999;-69
2021/09/18 02:06:39;;;;;;;;;;;23.00;45.20;;;;;;485041;245;1136;-68
2021/09/18 02:08:41;;;;;;;;;;;23.00;45.20;;;;;;485029;245;1031;-69
2021/09/18 02:10:42;;;;;;;;;;;22.90;45.50;;;;;;485011;245;2117;-68
2021/09/18 02:12:43;;;;;;;;;;;23.00;45.10;;;;;;484978;245;1101;-69
2021/09/18 02:14:45;;;;;;;;;;;22.90;45.30;;;;;;485054;245;1053;-69
2021/09/18 02:16:46;;;;;;;;;;;22.80;45.30;;;;;;484941;245;1235;-69
2021/09/18 02:18:47;;;;;;;;;;;22.90;45.40;;;;;;485010;245;1177;-69
2021/09/18 02:20:49;;;;;;;;;;;22.90;45.20;;;;;;485006;245;944;-69
2021/09/18 02:22:50;;;;;;;;;;;22.90;45.30;;;;;;485001;245;1203;-69
2021/09/18 02:24:51;;;;;;;;;;;22.80;45.20;;;;;;485076;245;977;-68
2021/09/18 02:26:53;;;;;;;;;;;23.30;44.90;;;;;;484996;245;1211;-68
2021/09/18 02:28:54;;;;;;;;;;;23.00;44.70;;;;;;485044;245;964;-68
2021/09/18 02:30:55;;;;;;;;;;;23.10;44.80;;;;;;484989;245;2132;-68
2021/09/18 02:32:57;;;;;;;;;;;23.00;45.10;;;;;;484915;245;1105;-68
2021/09/18 02:34:58;;;;;;;;;;;22.80;45.00;;;;;;485014;245;1023;-69
2021/09/18 02:36:59;;;;;;;;;;;22.80;45.40;;;;;;484931;245;1215;-68
2021/09/18 02:39:01;;;;;;;;;;;23.00;44.60;;;;;;485000;245;1040;-68
2021/09/18 02:41:02;;;;;;;;;;;23.10;44.70;;;;;;485003;245;1227;-68
2021/09/18 02:43:03;;;;;;;;;;;23.00;44.90;;;;;;485027;245;991;-68
2021/09/18 02:45:04;;;;;;;;;;;22.80;45.10;;;;;;485009;245;975;-68
2021/09/18 02:47:06;;;;;;;;;;;22.70;45.20;;;;;;484918;246;1230;-68
2021/09/18 02:49:07;;;;;;;;;;;22.80;45.30;;;;;;485035;245;1186;-69
2021/09/18 02:51:08;;;;;;;;;;;23.00;44.60;;;;;;485043;245;2116;-68
2021/09/18 02:53:10;;;;;;;;;;;22.80;45.00;;;;;;485029;245;1047;-69
2021/09/18 02:55:11;;;;;;;;;;;22.90;44.90;;;;;;485053;245;1000;-68
2021/09/18 02:57:12;;;;;;;;;;;22.90;44.90;;;;;;484830;245;1092;-69
2021/09/18 02:59:14;;;;;;;;;;;23.00;44.60;;;;;;484952;245;1086;-69
2021/09/18 03:01:15;;;;;;;;;;;23.00;44.60;;;;;;484996;245;1088;-68
2021/09/18 03:03:16;;;;;;;;;;;23.30;44.20;;;;;;485023;245;1306;-69
2021/09/18 03:05:18;;;;;;;;;;;22.90;44.50;;;;;;485034;246;1059;-68
2021/09/18 03:07:19;;;;;;;;;;;23.00;44.80;;;;;;484978;245;1191;-68
2021/09/18 03:09:20;;;;;;;;;;;22.70;44.80;;;;;;485037;245;1001;-69
2021/09/18 03:11:22;;;;;;;;;;;23.00;44.60;;;;;;485006;245;2124;-69
2021/09/18 03:13:23;;;;;;;;;;;23.00;44.60;;;;;;484963;245;1095;-69
2021/09/18 03:15:24;;;;;;;;;;;22.80;44.80;;;;;;484984;245;1101;-68
2021/09/18 03:17:26;;;;;;;;;;;22.80;44.80;;;;;;484949;245;1214;-69
2021/09/18 03:19:27;;;;;;;;;;;22.80;44.80;;;;;;485049;245;1191;-69
2021/09/18 03:21:28;;;;;;;;;;;22.80;44.80;;;;;;485021;245;1141;-68
2021/09/18 03:23:30;;;;;;;;;;;22.70;44.80;;;;;;485052;245;1095;-68
2021/09/18 03:25:31;;;;;;;;;;;22.70;44.80;;;;;;485098;245;1073;-68
2021/09/18 03:27:32;;;;;;;;;;;22.80;44.70;;;;;;484917;245;1138;-68
2021/09/18 03:29:34;;;;;;;;;;;22.80;44.70;;;;;;485059;245;936;-69
2021/09/18 03:31:35;;;;;;;;;;;23.00;44.50;;;;;;485017;245;2120;-68
2021/09/18 03:33:36;;;;;;;;;;;23.10;44.10;;;;;;484992;245;1180;-69
2021/09/18 03:35:37;;;;;;;;;;;23.00;44.40;;;;;;485025;245;1035;-69
2021/09/18 03:37:39;;;;;;;;;;;22.90;44.20;;;;;;484926;245;1147;-68
2021/09/18 03:39:41;;;;;;;;;;;22.90;44.50;;;;;;484996;245;991;-69
2021/09/18 03:41:42;;;;;;;;;;;23.00;44.20;;;;;;484982;245;1397;-68
2021/09/18 03:43:43;;;;;;;;;;;22.80;44.50;;;;;;485097;245;1135;-69
2021/09/18 03:45:44;;;;;;;;;;;22.70;44.40;;;;;;485010;245;1224;-68
2021/09/18 03:47:45;;;;;;;;;;;23.20;44.30;;;;;;485047;245;1176;-68
2021/09/18 03:49:47;;;;;;;;;;;23.00;43.80;;;;;;485044;245;1181;-69
2021/09/18 03:51:48;;;;;;;;;;;23.00;43.80;;;;;;484961;245;2199;-68
2021/09/18 03:53:49;;;;;;;;;;;22.80;44.20;;;;;;484979;245;1108;-69
2021/09/18 03:55:51;;;;;;;;;;;22.80;44.30;;;;;;484982;246;1321;-69
2021/09/18 03:57:52;;;;;;;;;;;23.00;44.30;;;;;;484947;245;1162;-68
2021/09/18 03:59:53;;;;;;;;;;;22.90;44.20;;;;;;485011;245;1087;-69
2021/09/18 04:01:55;;;;;;;;;;;22.70;44.30;;;;;;484990;245;1261;-68
2021/09/18 04:03:56;;;;;;;;;;;22.90;44.20;;;;;;484982;245;1155;-68
2021/09/18 04:05:57;;;;;;;;;;;22.90;44.10;;;;;;485035;245;1177;-69
2021/09/18 04:07:59;;;;;;;;;;;23.00;44.00;;;;;;484995;245;1152;-69
2021/09/18 04:10:00;;;;;;;;;;;22.70;44.20;;;;;;485027;245;969;-68
2021/09/18 04:12:02;;;;;;;;;;;22.90;44.00;;;;;;484989;245;2129;-69
2021/09/18 04:14:03;;;;;;;;;;;22.70;44.20;;;;;;484991;245;980;-68
2021/09/18 04:16:04;;;;;;;;;;;22.70;44.20;;;;;;484984;245;1110;-68
2021/09/18 04:18:05;;;;;;;;;;;23.00;43.80;;;;;;484994;245;1218;-68
2021/09/18 04:20:07;;;;;;;;;;;22.70;44.20;;;;;;485003;245;1169;-69
2021/09/18 04:22:08;;;;;;;;;;;22.70;44.10;;;;;;484916;245;1085;-69
2021/09/18 04:24:10;;;;;;;;;;;22.80;44.10;;;;;;485061;245;945;-69
2021/09/18 04:26:11;;;;;;;;;;;23.00;43.70;;;;;;484944;245;1171;-69
2021/09/18 04:28:13;;;;;;;;;;;23.00;43.70;;;;;;484994;245;956;-69
2021/09/18 04:30:14;;;;;;;;;;;23.20;43.00;;;;;;484978;245;1475;-69
2021/09/18 04:32:15;;;;;;;;;;;23.50;42.90;;;;;;484977;245;2183;-68
2021/09/18 04:34:16;;;;;;;;;;;23.70;42.30;;;;;;485016;245;975;-69
2021/09/18 04:36:18;;;;;;;;;;;23.60;42.40;;;;;;485002;245;1186;-69
2021/09/18 04:38:19;;;;;;;;;;;23.50;42.40;;;;;;485014;246;958;-69
2021/09/18 04:40:20;;;;;;;;;;;23.50;42.50;;;;;;485094;245;952;-69
2021/09/18 04:42:22;;;;;;;;;;;23.30;42.70;;;;;;485016;246;1163;-68
2021/09/18 04:44:23;;;;;;;;;;;23.40;42.70;;;;;;485043;245;967;-68
2021/09/18 04:46:25;;;;;;;;;;;23.40;42.70;;;;;;484950;245;1228;-68
2021/09/18 04:48:26;;;;;;;;;;;23.50;42.50;;;;;;484987;245;1084;-68
2021/09/18 04:50:27;;;;;;;;;;;23.10;42.90;;;;;;485002;245;1146;-68
2021/09/18 04:52:29;;;;;;;;;;;23.00;43.20;;;;;;484942;245;2128;-69
2021/09/18 04:54:30;;;;;;;;;;;22.90;43.60;;;;;;485056;245;1051;-68
2021/09/18 04:56:31;;;;;;;;;;;22.90;43.30;;;;;;484941;245;1315;-68
2021/09/18 04:58:33;;;;;;;;;;;23.00;43.40;;;;;;484975;245;1109;-68
2021/09/18 05:00:34;;;;;;;;;;;22.90;43.40;;;;;;485013;245;1049;-68
2021/09/18 05:02:35;;;;;;;;;;;23.10;43.10;;;;;;484951;245;1136;-68
2021/09/18 05:04:37;;;;;;;;;;;23.10;43.10;;;;;;484998;245;956;-69
2021/09/18 05:06:38;;;;;;;;;;;23.00;43.00;;;;;;485015;246;1132;-68
2021/09/18 05:08:39;;;;;;;;;;;22.90;43.20;;;;;;484991;245;1093;-68
2021/09/18 05:10:41;;;;;;;;;;;23.00;43.40;;;;;;484998;245;949;-69
2021/09/18 05:12:42;;;;;;;;;;;23.00;43.10;;;;;;484957;245;2132;-68
2021/09/18 05:14:43;;;;;;;;;;;23.10;42.90;;;;;;485009;245;933;-69
2021/09/18 05:16:44;;;;;;;;;;;23.10;42.80;;;;;;484946;245;1071;-69
2021/09/18 05:18:46;;;;;;;;;;;23.20;42.90;;;;;;484965;245;1096;-68
2021/09/18 05:20:47;;;;;;;;;;;23.00;43.10;;;;;;484977;245;1183;-68
2021/09/18 05:22:48;;;;;;;;;;;23.10;43.00;;;;;;484991;245;1168;-68
2021/09/18 05:24:51;;;;;;;;;;;23.00;43.10;;;;;;485014;245;1064;-69
2021/09/18 05:26:51;;;;;;;;;;;23.00;43.20;;;;;;484883;245;1434;-69
2021/09/18 05:28:53;;;;;;;;;;;22.90;43.20;;;;;;484980;245;1167;-69
2021/09/18 05:30:54;;;;;;;;;;;23.10;43.00;;;;;;484996;245;1158;-69
2021/09/18 05:32:55;;;;;;;;;;;23.20;42.90;;;;;;485079;245;2120;-68
2021/09/18 05:34:56;;;;;;;;;;;23.20;42.80;;;;;;485102;245;1112;-69
2021/09/18 05:36:58;;;;;;;;;;;23.10;42.90;;;;;;484949;245;1173;-69
2021/09/18 05:38:59;;;;;;;;;;;23.00;43.20;;;;;;485034;245;1128;-69
2021/09/18 05:41:00;;;;;;;;;;;22.90;43.20;;;;;;484991;245;1088;-68
2021/09/18 05:43:02;;;;;;;;;;;23.10;43.20;;;;;;485054;245;1136;-68
2021/09/18 05:45:03;;;;;;;;;;;23.10;42.90;;;;;;485028;245;1047;-69
2021/09/18 05:47:04;;;;;;;;;;;23.10;42.90;;;;;;484929;245;1091;-69
2021/09/18 05:49:06;;;;;;;;;;;23.40;42.30;;;;;;485036;245;1062;-68
2021/09/18 05:51:07;;;;;;;;;;;23.10;43.10;;;;;;484983;245;2148;-68
2021/09/18 05:53:09;;;;;;;;;;;23.10;42.90;;;;;;485046;245;1382;-68
2021/09/18 05:55:10;;;;;;;;;;;22.90;43.30;;;;;;485021;245;1497;-68
2021/09/18 05:57:11;;;;;;;;;;;23.30;42.80;;;;;;485058;245;1174;-68
2021/09/18 05:59:12;;;;;;;;;;;23.10;43.10;;;;;;485004;245;1117;-68
2021/09/18 06:01:14;;;;;;;;;;;23.10;43.10;;;;;;484974;245;1111;-68
2021/09/18 06:03:15;;;;;;;;;;;23.10;43.10;;;;;;485014;245;1030;-68
2021/09/18 06:05:16;;;;;;;;;;;23.10;43.00;;;;;;485060;245;1089;-69
2021/09/18 06:07:18;;;;;;;;;;;23.20;43.30;;;;;;484969;245;1166;-69
2021/09/18 06:09:19;;;;;;;;;;;23.10;43.30;;;;;;484985;245;1377;-68
2021/09/18 06:11:20;;;;;;;;;;;23.00;43.50;;;;;;484973;246;2194;-68
2021/09/18 06:13:22;;;;;;;;;;;23.10;43.30;;;;;;485017;245;1058;-68
2021/09/18 06:15:23;;;;;;;;;;;23.00;43.50;;;;;;485007;245;1470;-69
2021/09/18 06:17:24;;;;;;;;;;;23.30;43.20;;;;;;485016;245;1153;-69
2021/09/18 06:19:26;;;;;;;;;;;23.20;43.30;;;;;;485055;245;981;-68
2021/09/18 06:21:27;;;;;;;;;;;23.00;43.70;;;;;;485045;245;1300;-68
2021/09/18 06:23:28;;;;;;;;;;;23.30;43.50;;;;;;484949;245;987;-69
2021/09/18 06:25:30;;;;;;;;;;;23.10;43.70;;;;;;485028;245;968;-69
2021/09/18 06:27:31;;;;;;;;;;;23.00;43.70;;;;;;485086;245;1183;-69
2021/09/18 06:29:32;;;;;;;;;;;23.10;43.80;;;;;;485001;245;1030;-69
2021/09/18 06:31:33;;;;;;;;;;;23.20;43.70;;;;;;484990;245;2192;-69
2021/09/18 06:33:36;;;;;;;;;;;23.00;44.00;;;;;;485056;245;1067;-69
2021/09/18 06:35:36;;;;;;;;;;;23.20;43.80;;;;;;485161;245;1401;-69
2021/09/18 06:37:37;;;;;;;;;;;23.20;44.10;;;;;;484997;245;1167;-69
2021/09/18 06:39:39;;;;;;;;;;;23.10;44.10;;;;;;485045;245;1068;-69
2021/09/18 06:41:40;;;;;;;;;;;23.40;43.70;;;;;;484972;245;1131;-69
2021/09/18 06:43:41;;;;;;;;;;;23.40;43.90;;;;;;485123;245;1144;-68
2021/09/18 06:45:43;;;;;;;;;;;23.10;44.40;;;;;;485023;245;1211;-69
2021/09/18 06:47:44;;;;;;;;;;;23.20;44.40;;;;;;484972;245;1003;-69
2021/09/18 06:49:45;;;;;;;;;;;23.10;44.50;;;;;;485047;245;1155;-68
2021/09/18 06:51:47;;;;;;;;;;;23.10;44.80;;;;;;484973;245;2183;-68
2021/09/18 06:53:48;;;;;;;;;;;23.20;44.50;;;;;;484957;245;1046;-69
2021/09/18 06:55:49;;;;;;;;;;;23.30;44.40;;;;;;484889;245;1192;-68
2021/09/18 06:57:52;;;;;;;;;;;23.10;44.80;;;;;;484965;245;1073;-68
2021/09/18 06:59:52;;;;;;;;;;;23.10;45.00;;;;;;484900;245;1410;-68
2021/09/18 07:01:53;;;;;;;;;;;23.30;45.00;;;;;;484974;245;1220;-68
2021/09/18 07:03:55;;;;;;;;;;;23.30;44.90;;;;;;485150;245;944;-68
2021/09/18 07:05:56;;;;;;;;;;;23.10;45.00;;;;;;485025;245;1158;-69
2021/09/18 07:07:57;;;;;;;;;;;23.30;45.20;;;;;;485027;245;1165;-69
2021/09/18 07:09:59;;;;;;;;;;;23.40;45.00;;;;;;485062;245;1039;-68
2021/09/18 07:12:00;;;;;;;;;;;23.10;45.30;;;;;;484963;245;2195;-68
2021/09/18 07:14:01;;;;;;;;;;;23.10;45.70;;;;;;485012;246;1115;-69
2021/09/18 07:16:03;;;;;;;;;;;23.20;45.70;;;;;;484915;246;1190;-69
2021/09/18 07:18:04;;;;;;;;;;;23.00;45.80;;;;;;484921;245;1510;-69
2021/09/18 07:20:05;;;;;;;;;;;23.10;46.00;;;;;;485007;245;1072;-69
2021/09/18 07:22:07;;;;;;;;;;;23.10;46.00;;;;;;484893;245;1203;-68
2021/09/18 07:24:08;;;;;;;;;;;23.30;46.00;;;;;;485004;245;1105;-68
2021/09/18 07:26:11;;;;;;;;;;;23.20;46.10;;;;;;484938;245;1127;-69
2021/09/18 07:28:11;;;;;;;;;;;23.10;46.20;;;;;;484972;245;1464;-68
2021/09/18 07:30:12;;;;;;;;;;;23.10;46.40;;;;;;485017;245;1149;-69
2021/09/18 07:32:13;;;;;;;;;;;23.00;46.50;;;;;;484907;245;2132;-69
2021/09/18 07:34:15;;;;;;;;;;;22.90;46.80;;;;;;485024;245;1034;-68
2021/09/18 07:36:16;;;;;;;;;;;23.20;46.40;;;;;;484983;245;1197;-68
2021/09/18 07:38:17;;;;;;;;;;;23.10;46.50;;;;;;484970;245;1175;-69
2021/09/18 07:40:19;;;;;;;;;;;23.30;46.20;;;;;;485027;245;964;-69
2021/09/18 07:42:20;;;;;;;;;;;23.30;46.30;;;;;;484954;245;1129;-69
2021/09/18 07:44:21;;;;;;;;;;;23.40;46.30;;;;;;484997;245;1069;-68
2021/09/18 07:46:23;;;;;;;;;;;23.30;46.40;;;;;;485008;245;1138;-69
2021/09/18 07:48:24;;;;;;;;;;;23.20;46.80;;;;;;485021;245;1111;-68
2021/09/18 07:50:25;;;;;;;;;;;23.30;46.80;;;;;;485049;245;1017;-68
2021/09/18 07:52:26;;;;;;;;;;;23.20;46.80;;;;;;484919;246;2191;-69
2021/09/18 07:54:29;;;;;;;;;;;23.50;46.70;;;;;;484957;246;1068;-68
2021/09/18 07:56:29;;;;;;;;;;;23.20;46.80;;;;;;484841;245;1407;-68
2021/09/18 07:58:31;;;;;;;;;;;23.00;47.10;;;;;;484943;245;1142;-68
2021/09/18 08:00:32;;;;;;;;;;;23.10;47.50;;;;;;484924;245;994;-69
2021/09/18 08:02:33;;;;;;;;;;;23.20;47.40;;;;;;484983;245;1218;-69
2021/09/18 08:04:34;;;;;;;;;;;22.90;47.70;;;;;;484966;245;1101;-68
2021/09/18 08:06:36;;;;;;;;;;;22.90;48.10;;;;;;484934;245;1056;-68
2021/09/18 08:08:37;;;;;;;;;;;23.00;47.80;;;;;;485049;245;1178;-68
2021/09/18 08:10:38;;;;;;;;;;;22.90;48.20;;;;;;484960;245;952;-68
2021/09/18 08:12:40;;;;;;;;;;;23.00;48.10;;;;;;484941;245;2120;-68
2021/09/18 08:14:41;;;;;;;;;;;23.00;48.10;;;;;;485005;245;1116;-68
2021/09/18 08:16:42;;;;;;;;;;;22.90;48.50;;;;;;484952;245;986;-68
2021/09/18 08:18:44;;;;;;;;;;;23.20;48.00;;;;;;484943;245;1204;-68
2021/09/18 08:20:45;;;;;;;;;;;23.00;48.20;;;;;;484921;245;946;-68
2021/09/18 08:22:46;;;;;;;;;;;23.00;48.40;;;;;;484938;245;1304;-69
2021/09/18 08:24:48;;;;;;;;;;;23.10;48.20;;;;;;484951;245;1135;-69
2021/09/18 08:26:49;;;;;;;;;;;23.10;48.30;;;;;;484915;245;1038;-69
2021/09/18 08:28:50;;;;;;;;;;;23.00;48.30;;;;;;484966;245;1042;-68
2021/09/18 08:30:52;;;;;;;;;;;23.00;48.70;;;;;;484895;245;990;-69
2021/09/18 08:32:53;;;;;;;;;;;23.10;48.50;;;;;;484842;245;2195;-69
2021/09/18 08:34:54;;;;;;;;;;;23.00;48.80;;;;;;484874;245;937;-69
2021/09/18 08:36:56;;;;;;;;;;;23.00;48.70;;;;;;484826;245;1116;-69
2021/09/18 08:38:57;;;;;;;;;;;23.10;48.70;;;;;;484941;245;1188;-68
2021/09/18 08:40:58;;;;;;;;;;;23.00;48.80;;;;;;484976;245;1084;-69
2021/09/18 08:43:00;;;;;;;;;;;23.30;48.00;;;;;;484973;245;1089;-68
2021/09/18 08:45:01;;;;;;;;;;;23.10;48.50;;;;;;484964;245;960;-69
2021/09/18 08:47:02;;;;;;;;;;;23.00;48.90;;;;;;484928;245;1198;-68
2021/09/18 08:49:03;;;;;;;;;;;23.10;48.70;;;;;;484861;245;1072;-69
2021/09/18 08:51:05;;;;;;;;;;;23.20;48.50;;;;;;484925;245;1070;-69
2021/09/18 08:53:06;;;;;;;;;;;23.00;49.10;;;;;;484902;245;2204;-68
2021/09/18 08:55:07;;;;;;;;;;;22.90;49.40;;;;;;484920;245;946;-69
2021/09/18 08:57:09;;;;;;;;;;;22.90;49.50;;;;;;484789;246;1469;-69
2021/09/18 08:59:10;;;;;;;;;;;23.00;49.20;;;;;;484910;245;1038;-69
2021/09/18 09:01:11;;;;;;;;;;;23.30;48.50;;;;;;484830;245;1334;-69
2021/09/18 09:03:13;;;;;;;;;;;23.10;48.90;;;;;;484838;245;1008;-69
2021/09/18 09:05:14;;;;;;;;;;;23.10;48.70;;;;;;484852;246;1047;-69
2021/09/18 09:07:15;;;;;;;;;;;23.40;48.50;;;;;;484793;245;1231;-69
2021/09/18 09:09:17;;;;;;;;;;;23.30;48.80;;;;;;484906;245;1187;-68
2021/09/18 09:11:19;;;;;;;;;;;23.10;48.80;;;;;;484786;245;1137;-68
2021/09/18 09:13:19;;;;;;;;;;;23.20;49.00;;;;;;484836;245;2128;-69
2021/09/18 09:15:21;;;;;;;;;;;23.20;48.80;;;;;;484907;245;1102;-69
2021/09/18 09:17:22;;;;;;;;;;;23.10;49.10;;;;;;484859;246;1284;-68
2021/09/18 09:19:24;;;;;;;;;;;23.00;49.40;;;;;;484952;245;980;-69
2021/09/18 09:21:25;;;;;;;;;;;23.10;49.20;;;;;;484879;245;1157;-68
2021/09/18 09:23:26;;;;;;;;;;;23.10;48.90;;;;;;484913;245;1195;-69
2021/09/18 09:25:28;;;;;;;;;;;23.30;48.60;;;;;;484989;245;1280;-69
2021/09/18 09:27:29;;;;;;;;;;;23.30;48.60;;;;;;484820;245;1087;-69
2021/09/18 09:29:30;;;;;;;;;;;23.40;48.40;;;;;;484929;245;957;-68
2021/09/18 09:31:32;;;;;;;;;;;23.40;47.90;;;;;;484831;245;1170;-69
2021/09/18 09:33:33;;;;;;;;;;;23.30;48.40;;;;;;484916;245;2172;-68
2021/09/18 09:35:34;;;;;;;;;;;23.20;48.50;;;;;;484934;245;1212;-69
2021/09/18 09:37:36;;;;;;;;;;;23.10;48.70;;;;;;484864;245;1288;-68
2021/09/18 09:39:37;;;;;;;;;;;23.30;48.40;;;;;;484910;246;1181;-69
2021/09/18 09:41:38;;;;;;;;;;;23.30;48.40;;;;;;484820;245;1188;-69
2021/09/18 09:43:40;;;;;;;;;;;23.10;48.80;;;;;;484880;245;1061;-68
2021/09/18 09:45:41;;;;;;;;;;;23.40;48.20;;;;;;484867;245;1029;-68
2021/09/18 09:47:42;;;;;;;;;;;23.30;48.30;;;;;;484865;245;1106;-68
2021/09/18 09:49:44;;;;;;;;;;;23.30;48.30;;;;;;484900;245;1059;-69
2021/09/18 09:51:45;;;;;;;;;;;23.50;48.00;;;;;;484898;245;1299;-68
2021/09/18 09:53:46;;;;;;;;;;;23.60;47.90;;;;;;484925;245;2180;-68
2021/09/18 09:55:48;;;;;;;;;;;23.40;48.30;;;;;;484954;245;963;-69
2021/09/18 09:57:49;;;;;;;;;;;23.60;47.60;;;;;;484945;245;1078;-69
2021/09/18 09:59:50;;;;;;;;;;;23.30;48.40;;;;;;485073;245;1115;-68
2021/09/18 10:01:51;;;;;;;;;;;23.40;48.00;;;;;;484860;245;1283;-68
2021/09/18 10:03:53;;;;;;;;;;;23.20;48.80;;;;;;484974;245;1197;-68
2021/09/18 10:05:54;;;;;;;;;;;23.20;48.70;;;;;;484954;246;1207;-68
2021/09/18 10:07:55;;;;;;;;;;;23.20;48.70;;;;;;485050;245;1146;-68
2021/09/18 10:09:57;;;;;;;;;;;23.30;48.50;;;;;;484928;245;1174;-68
2021/09/18 10:11:58;;;;;;;;;;;23.40;48.50;;;;;;484915;245;1252;-69
2021/09/18 10:14:01;;;;;;;;;;;23.40;48.40;;;;;;484988;245;2120;-68
2021/09/18 10:16:01;;;;;;;;;;;23.30;48.60;;;;;;484868;245;1416;-69
2021/09/18 10:18:03;;;;;;;;;;;23.40;48.00;;;;;;484988;245;1164;-68
2021/09/18 10:20:07;;;;;;;;;;;23.80;47.60;;;;;;485062;245;1564;-69
2021/09/18 10:24:25;;;;;;;;;;;23.70;47.70;;;;;;484831;245;1179;-68
2021/09/18 10:26:26;;;;;;;;;;;23.40;48.20;;;;;;484853;245;1341;-68
2021/09/18 10:28:28;;;;;;;;;;;23.60;48.10;;;;;;484922;245;1198;-69
2021/09/18 10:30:29;;;;;;;;;;;23.40;48.20;;;;;;484958;245;1036;-69
2021/09/18 10:32:31;;;;;;;;;;;23.40;48.10;;;;;;484887;246;1148;-68
2021/09/18 10:34:32;;;;;;;;;;;23.60;47.50;;;;;;485008;245;2117;-68
2021/09/18 10:36:40;;;;;;;;;;;23.40;48.00;;;;;;485021;245;1293;-68
2021/09/18 10:38:35;;;;;;;;;;;23.30;48.00;;;;;;484661;245;1410;-68
2021/09/18 10:40:36;;;;;;;;;;;23.50;47.40;;;;;;485019;246;1175;-69
2021/09/18 10:42:37;;;;;;;;;;;23.50;47.60;;;;;;484888;245;1170;-69
2021/09/18 10:44:39;;;;;;;;;;;23.90;46.60;;;;;;484875;245;1049;-68
2021/09/18 10:46:40;;;;;;;;;;;23.80;46.50;;;;;;484945;245;961;-69
2021/09/18 10:48:42;;;;;;;;;;;24.30;45.80;;;;;;484959;245;1106;-69
2021/09/18 10:50:43;;;;;;;;;;;24.30;45.40;;;;;;485001;245;1381;-68
2021/09/18 10:52:44;;;;;;;;;;;24.30;45.40;;;;;;484921;245;988;-69
2021/09/18 10:54:45;;;;;;;;;;;24.30;45.30;;;;;;484931;245;2116;-69
2021/09/18 10:56:47;;;;;;;;;;;24.10;45.50;;;;;;484845;245;1112;-69
2021/09/18 10:58:48;;;;;;;;;;;24.20;45.40;;;;;;484959;245;940;-69
2021/09/18 11:00:52;;;;;;;;;;;24.00;45.50;;;;;;484951;245;952;-69
2021/09/18 11:02:54;;;;;;;;;;;24.00;45.70;;;;;;484929;245;1091;-68
2021/09/18 11:04:55;;;;;;;;;;;23.80;45.90;;;;;;484951;245;1065;-69
2021/09/18 11:06:56;;;;;;;;;;;23.70;46.00;;;;;;484817;245;1096;-69
2021/09/18 11:08:58;;;;;;;;;;;24.20;45.30;;;;;;484860;245;974;-68
2021/09/18 11:10:59;;;;;;;;;;;23.60;46.20;;;;;;484808;245;1288;-68
2021/09/18 11:13:00;;;;;;;;;;;23.40;46.50;;;;;;484805;245;1155;-68
2021/09/18 11:15:02;;;;;;;;;;;23.50;46.60;;;;;;484985;245;1053;-69
2021/09/18 11:17:03;;;;;;;;;;;23.50;46.80;;;;;;484785;246;1154;-68
2021/09/18 11:19:04;;;;;;;;;;;23.40;46.80;;;;;;484937;245;1032;-69
2021/09/18 11:21:06;;;;;;;;;;;23.40;46.80;;;;;;484834;245;1264;-69
2021/09/18 11:23:07;;;;;;;;;;;23.50;46.70;;;;;;484950;245;1121;-69
2021/09/18 11:25:08;;;;;;;;;;;23.30;46.80;;;;;;484926;245;1167;-68
2021/09/18 11:27:11;;;;;;;;;;;23.60;46.60;;;;;;484832;246;1126;-69
2021/09/18 11:29:11;;;;;;;;;;;23.40;46.60;;;;;;484839;245;1451;-68
2021/09/18 11:31:14;;;;;;;;;;;23.60;46.60;;;;;;484712;245;1174;-69
2021/09/18 11:33:14;;;;;;;;;;;23.20;47.00;;;;;;484876;245;2195;-68
2021/09/18 11:35:15;;;;;;;;;;;23.50;46.90;;;;;;484888;245;1073;-69
2021/09/18 11:37:16;;;;;;;;;;;23.50;46.80;;;;;;484850;245;1232;-68
2021/09/18 11:39:18;;;;;;;;;;;23.40;46.80;;;;;;484950;245;1076;-69
2021/09/18 11:41:20;;;;;;;;;;;23.60;46.70;;;;;;484843;245;1192;-69
2021/09/18 11:43:21;;;;;;;;;;;23.40;46.90;;;;;;484989;245;1435;-68
2021/09/18 11:45:23;;;;;;;;;;;23.40;46.80;;;;;;484947;246;1001;-69
2021/09/18 11:47:24;;;;;;;;;;;23.60;46.80;;;;;;484909;245;1216;-69
2021/09/18 11:49:25;;;;;;;;;;;23.80;46.30;;;;;;484958;245;1093;-68
2021/09/18 11:51:26;;;;;;;;;;;23.80;46.00;;;;;;484907;245;1006;-69
2021/09/18 11:53:28;;;;;;;;;;;23.80;46.10;;;;;;484911;245;2163;-68
2021/09/18 11:55:29;;;;;;;;;;;23.80;46.00;;;;;;484828;245;1140;-68
2021/09/18 11:57:30;;;;;;;;;;;23.80;46.10;;;;;;484910;245;951;-68
2021/09/18 11:59:32;;;;;;;;;;;23.60;46.10;;;;;;484920;245;1069;-69